sensor_id;sensor_type;location;lat;lon;timestamp;P1;durP1;ratioP1;P2;durP2;ratioP2
31126;SDS011;17775;57.948;12.514;2023-03-01T00:01:36;8.63;;;4.00;;
31126;SDS011;17775;57.948;12.514;2023-03-01T00:04:02;9.48;;;4.32;;
31126;SDS011;17775;57.948;12.514;2023-03-01T00:06:29;8.68;;;4.20;;
31126;SDS011;17775;57.948;12.514;2023-03-01T00:08:56;10.55;;;3.80;;
31126;SDS011;17775;57.948;12.514;2023-03-01T00:11:25;8.45;;;3.72;;
31126;SDS011;17775;57.948;12.514;2023-03-01T00:13:52;4.70;;;3.10;;
31126;SDS011;17775;57.948;12.514;2023-03-01T00:16:24;6.18;;;3.25;;
31126;SDS011;17775;57.948;12.514;2023-03-01T00:18:54;9.13;;;3.70;;
31126;SDS011;17775;57.948;12.514;2023-03-01T00:21:21;10.55;;;3.38;;
31126;SDS011;17775;57.948;12.514;2023-03-01T00:23:50;9.40;;;4.07;;
31126;SDS011;17775;57.948;12.514;2023-03-01T00:26:17;8.13;;;3.33;;
31126;SDS011;17775;57.948;12.514;2023-03-01T00:28:44;7.28;;;3.92;;
31126;SDS011;17775;57.948;12.514;2023-03-01T00:31:13;7.75;;;3.60;;
31126;SDS011;17775;57.948;12.514;2023-03-01T00:33:39;8.15;;;3.53;;
31126;SDS011;17775;57.948;12.514;2023-03-01T00:36:06;7.07;;;3.63;;
31126;SDS011;17775;57.948;12.514;2023-03-01T00:38:36;8.77;;;3.25;;
31126;SDS011;17775;57.948;12.514;2023-03-01T00:41:06;5.53;;;2.83;;
31126;SDS011;17775;57.948;12.514;2023-03-01T00:43:33;7.38;;;3.20;;
31126;SDS011;17775;57.948;12.514;2023-03-01T00:46:06;5.65;;;2.65;;
31126;SDS011;17775;57.948;12.514;2023-03-01T00:48:33;8.27;;;2.75;;
31126;SDS011;17775;57.948;12.514;2023-03-01T00:51:07;4.45;;;2.67;;
31126;SDS011;17775;57.948;12.514;2023-03-01T00:53:34;7.88;;;3.25;;
31126;SDS011;17775;57.948;12.514;2023-03-01T00:56:01;3.88;;;2.40;;
31126;SDS011;17775;57.948;12.514;2023-03-01T00:58:28;5.28;;;2.85;;
31126;SDS011;17775;57.948;12.514;2023-03-01T01:00:54;7.25;;;3.03;;
31126;SDS011;17775;57.948;12.514;2023-03-01T01:03:21;6.75;;;3.03;;
31126;SDS011;17775;57.948;12.514;2023-03-01T01:05:48;6.97;;;2.75;;
31126;SDS011;17775;57.948;12.514;2023-03-01T01:08:14;6.88;;;2.83;;
31126;SDS011;17775;57.948;12.514;2023-03-01T01:10:42;5.97;;;3.25;;
31126;SDS011;17775;57.948;12.514;2023-03-01T01:13:09;8.88;;;3.63;;
31126;SDS011;17775;57.948;12.514;2023-03-01T01:15:35;6.32;;;3.13;;
31126;SDS011;17775;57.948;12.514;2023-03-01T01:18:02;7.15;;;2.83;;
31126;SDS011;17775;57.948;12.514;2023-03-01T01:20:29;8.45;;;3.03;;
31126;SDS011;17775;57.948;12.514;2023-03-01T01:22:55;5.28;;;2.60;;
31126;SDS011;17775;57.948;12.514;2023-03-01T01:25:22;6.07;;;3.20;;
31126;SDS011;17775;57.948;12.514;2023-03-01T01:27:51;8.00;;;2.90;;
31126;SDS011;17775;57.948;12.514;2023-03-01T01:30:17;6.55;;;2.80;;
31126;SDS011;17775;57.948;12.514;2023-03-01T01:32:44;4.40;;;2.35;;
31126;SDS011;17775;57.948;12.514;2023-03-01T01:35:10;4.05;;;2.10;;
31126;SDS011;17775;57.948;12.514;2023-03-01T01:37:40;8.05;;;2.65;;
31126;SDS011;17775;57.948;12.514;2023-03-01T01:40:06;4.95;;;2.83;;
31126;SDS011;17775;57.948;12.514;2023-03-01T01:42:33;8.73;;;2.85;;
31126;SDS011;17775;57.948;12.514;2023-03-01T01:47:44;5.65;;;2.22;;
31126;SDS011;17775;57.948;12.514;2023-03-01T01:50:14;5.45;;;2.30;;
31126;SDS011;17775;57.948;12.514;2023-03-01T01:52:43;6.20;;;2.58;;
31126;SDS011;17775;57.948;12.514;2023-03-01T01:55:16;6.55;;;2.30;;
31126;SDS011;17775;57.948;12.514;2023-03-01T01:57:47;5.80;;;2.40;;
31126;SDS011;17775;57.948;12.514;2023-03-01T02:00:16;6.82;;;2.70;;
31126;SDS011;17775;57.948;12.514;2023-03-01T02:02:42;3.95;;;2.33;;
31126;SDS011;17775;57.948;12.514;2023-03-01T02:05:15;6.70;;;2.80;;
31126;SDS011;17775;57.948;12.514;2023-03-01T02:07:43;5.68;;;2.80;;
31126;SDS011;17775;57.948;12.514;2023-03-01T02:10:10;6.32;;;2.58;;
31126;SDS011;17775;57.948;12.514;2023-03-01T02:12:37;5.70;;;3.10;;
31126;SDS011;17775;57.948;12.514;2023-03-01T02:15:04;4.63;;;2.50;;
31126;SDS011;17775;57.948;12.514;2023-03-01T02:17:31;6.13;;;2.80;;
31126;SDS011;17775;57.948;12.514;2023-03-01T02:20:08;6.20;;;2.20;;
31126;SDS011;17775;57.948;12.514;2023-03-01T02:22:36;5.13;;;2.15;;
31126;SDS011;17775;57.948;12.514;2023-03-01T02:27:36;7.78;;;2.30;;
31126;SDS011;17775;57.948;12.514;2023-03-01T02:30:04;6.40;;;2.38;;
31126;SDS011;17775;57.948;12.514;2023-03-01T02:32:31;6.70;;;2.25;;
31126;SDS011;17775;57.948;12.514;2023-03-01T02:34:57;5.70;;;2.50;;
31126;SDS011;17775;57.948;12.514;2023-03-01T02:37:24;4.20;;;2.28;;
31126;SDS011;17775;57.948;12.514;2023-03-01T02:39:56;6.07;;;2.20;;
31126;SDS011;17775;57.948;12.514;2023-03-01T02:42:26;5.75;;;2.67;;
31126;SDS011;17775;57.948;12.514;2023-03-01T02:44:54;3.42;;;1.90;;
31126;SDS011;17775;57.948;12.514;2023-03-01T02:47:21;4.57;;;2.50;;
31126;SDS011;17775;57.948;12.514;2023-03-01T02:49:47;4.38;;;2.20;;
31126;SDS011;17775;57.948;12.514;2023-03-01T02:57:08;6.30;;;2.42;;
31126;SDS011;17775;57.948;12.514;2023-03-01T02:59:35;5.15;;;1.77;;
31126;SDS011;17775;57.948;12.514;2023-03-01T03:02:06;4.22;;;2.20;;
31126;SDS011;17775;57.948;12.514;2023-03-01T03:04:32;5.00;;;2.20;;
31126;SDS011;17775;57.948;12.514;2023-03-01T03:06:59;4.63;;;2.08;;
31126;SDS011;17775;57.948;12.514;2023-03-01T03:09:25;4.55;;;2.25;;
31126;SDS011;17775;57.948;12.514;2023-03-01T03:11:52;5.07;;;2.20;;
31126;SDS011;17775;57.948;12.514;2023-03-01T03:14:18;5.88;;;2.45;;
31126;SDS011;17775;57.948;12.514;2023-03-01T03:16:46;4.40;;;2.13;;
31126;SDS011;17775;57.948;12.514;2023-03-01T03:19:16;3.83;;;2.30;;
31126;SDS011;17775;57.948;12.514;2023-03-01T03:21:43;7.68;;;2.65;;
31126;SDS011;17775;57.948;12.514;2023-03-01T03:24:09;7.50;;;2.38;;
31126;SDS011;17775;57.948;12.514;2023-03-01T03:26:36;8.35;;;3.22;;
31126;SDS011;17775;57.948;12.514;2023-03-01T03:29:03;11.23;;;3.92;;
31126;SDS011;17775;57.948;12.514;2023-03-01T03:31:29;12.27;;;4.38;;
31126;SDS011;17775;57.948;12.514;2023-03-01T03:33:56;14.50;;;4.05;;
31126;SDS011;17775;57.948;12.514;2023-03-01T03:36:25;10.48;;;4.07;;
31126;SDS011;17775;57.948;12.514;2023-03-01T03:38:51;9.75;;;3.53;;
31126;SDS011;17775;57.948;12.514;2023-03-01T03:41:18;5.88;;;3.20;;
31126;SDS011;17775;57.948;12.514;2023-03-01T03:43:44;8.13;;;2.72;;
31126;SDS011;17775;57.948;12.514;2023-03-01T03:46:11;11.38;;;3.22;;
31126;SDS011;17775;57.948;12.514;2023-03-01T03:48:42;8.05;;;3.08;;
31126;SDS011;17775;57.948;12.514;2023-03-01T03:53:38;2.90;;;2.05;;
31126;SDS011;17775;57.948;12.514;2023-03-01T03:56:04;4.22;;;2.17;;
31126;SDS011;17775;57.948;12.514;2023-03-01T03:58:32;6.28;;;2.20;;
31126;SDS011;17775;57.948;12.514;2023-03-01T04:00:58;7.10;;;2.70;;
31126;SDS011;17775;57.948;12.514;2023-03-01T04:03:27;7.10;;;2.13;;
31126;SDS011;17775;57.948;12.514;2023-03-01T04:05:54;5.78;;;2.50;;
31126;SDS011;17775;57.948;12.514;2023-03-01T04:08:21;5.22;;;2.30;;
31126;SDS011;17775;57.948;12.514;2023-03-01T04:10:49;7.72;;;2.40;;
31126;SDS011;17775;57.948;12.514;2023-03-01T04:13:17;4.07;;;2.08;;
31126;SDS011;17775;57.948;12.514;2023-03-01T04:15:46;4.70;;;2.35;;
31126;SDS011;17775;57.948;12.514;2023-03-01T04:18:13;4.35;;;2.30;;
31126;SDS011;17775;57.948;12.514;2023-03-01T04:20:40;4.93;;;2.17;;
31126;SDS011;17775;57.948;12.514;2023-03-01T04:23:07;5.45;;;2.33;;
31126;SDS011;17775;57.948;12.514;2023-03-01T04:25:41;4.53;;;2.40;;
31126;SDS011;17775;57.948;12.514;2023-03-01T04:30:34;5.93;;;2.33;;
31126;SDS011;17775;57.948;12.514;2023-03-01T04:33:02;3.85;;;2.13;;
31126;SDS011;17775;57.948;12.514;2023-03-01T04:35:30;3.22;;;2.10;;
31126;SDS011;17775;57.948;12.514;2023-03-01T04:37:56;5.10;;;2.15;;
31126;SDS011;17775;57.948;12.514;2023-03-01T04:40:26;6.45;;;2.47;;
31126;SDS011;17775;57.948;12.514;2023-03-01T04:42:52;5.95;;;2.13;;
31126;SDS011;17775;57.948;12.514;2023-03-01T04:45:19;4.70;;;2.38;;
31126;SDS011;17775;57.948;12.514;2023-03-01T04:47:46;3.88;;;2.20;;
31126;SDS011;17775;57.948;12.514;2023-03-01T04:50:14;5.22;;;2.67;;
31126;SDS011;17775;57.948;12.514;2023-03-01T04:52:41;4.07;;;2.10;;
31126;SDS011;17775;57.948;12.514;2023-03-01T04:55:10;6.15;;;2.53;;
31126;SDS011;17775;57.948;12.514;2023-03-01T04:57:37;4.90;;;2.50;;
31126;SDS011;17775;57.948;12.514;2023-03-01T05:00:05;3.97;;;2.20;;
31126;SDS011;17775;57.948;12.514;2023-03-01T05:02:50;4.93;;;2.22;;
31126;SDS011;17775;57.948;12.514;2023-03-01T05:05:24;4.07;;;2.13;;
31126;SDS011;17775;57.948;12.514;2023-03-01T05:07:52;5.78;;;2.50;;
31126;SDS011;17775;57.948;12.514;2023-03-01T05:10:19;7.00;;;2.55;;
31126;SDS011;17775;57.948;12.514;2023-03-01T05:12:46;5.07;;;2.25;;
31126;SDS011;17775;57.948;12.514;2023-03-01T05:15:12;5.60;;;2.15;;
31126;SDS011;17775;57.948;12.514;2023-03-01T05:17:39;6.45;;;2.13;;
31126;SDS011;17775;57.948;12.514;2023-03-01T05:20:05;3.85;;;1.90;;
31126;SDS011;17775;57.948;12.514;2023-03-01T05:22:35;7.07;;;2.15;;
31126;SDS011;17775;57.948;12.514;2023-03-01T05:25:02;2.70;;;1.30;;
31126;SDS011;17775;57.948;12.514;2023-03-01T05:27:29;3.95;;;1.75;;
31126;SDS011;17775;57.948;12.514;2023-03-01T05:29:56;4.00;;;1.38;;
31126;SDS011;17775;57.948;12.514;2023-03-01T05:32:22;4.50;;;1.73;;
31126;SDS011;17775;57.948;12.514;2023-03-01T05:34:49;4.40;;;2.58;;
31126;SDS011;17775;57.948;12.514;2023-03-01T05:37:15;6.65;;;2.72;;
31126;SDS011;17775;57.948;12.514;2023-03-01T05:39:41;6.20;;;2.28;;
31126;SDS011;17775;57.948;12.514;2023-03-01T05:42:08;4.82;;;2.40;;
31126;SDS011;17775;57.948;12.514;2023-03-01T05:44:36;7.82;;;2.83;;
31126;SDS011;17775;57.948;12.514;2023-03-01T05:47:02;11.85;;;2.22;;
31126;SDS011;17775;57.948;12.514;2023-03-01T05:49:29;7.40;;;2.67;;
31126;SDS011;17775;57.948;12.514;2023-03-01T05:51:56;6.57;;;2.35;;
31126;SDS011;17775;57.948;12.514;2023-03-01T05:54:22;4.28;;;1.95;;
31126;SDS011;17775;57.948;12.514;2023-03-01T05:56:49;6.07;;;2.40;;
31126;SDS011;17775;57.948;12.514;2023-03-01T05:59:15;5.43;;;2.30;;
31126;SDS011;17775;57.948;12.514;2023-03-01T06:01:42;8.35;;;3.33;;
31126;SDS011;17775;57.948;12.514;2023-03-01T06:04:09;7.60;;;3.03;;
31126;SDS011;17775;57.948;12.514;2023-03-01T06:06:36;8.00;;;3.35;;
31126;SDS011;17775;57.948;12.514;2023-03-01T06:09:04;7.35;;;3.65;;
31126;SDS011;17775;57.948;12.514;2023-03-01T06:11:30;9.00;;;3.97;;
31126;SDS011;17775;57.948;12.514;2023-03-01T06:13:57;7.03;;;4.13;;
31126;SDS011;17775;57.948;12.514;2023-03-01T06:16:24;8.85;;;3.88;;
31126;SDS011;17775;57.948;12.514;2023-03-01T06:18:50;8.43;;;3.88;;
31126;SDS011;17775;57.948;12.514;2023-03-01T06:21:16;8.18;;;3.20;;
31126;SDS011;17775;57.948;12.514;2023-03-01T06:23:43;5.55;;;3.30;;
31126;SDS011;17775;57.948;12.514;2023-03-01T06:26:09;7.13;;;3.70;;
31126;SDS011;17775;57.948;12.514;2023-03-01T06:28:36;7.22;;;3.63;;
31126;SDS011;17775;57.948;12.514;2023-03-01T06:31:05;7.65;;;3.55;;
31126;SDS011;17775;57.948;12.514;2023-03-01T06:33:35;6.85;;;3.80;;
31126;SDS011;17775;57.948;12.514;2023-03-01T06:36:02;8.40;;;4.18;;
31126;SDS011;17775;57.948;12.514;2023-03-01T06:38:28;11.88;;;4.03;;
31126;SDS011;17775;57.948;12.514;2023-03-01T06:40:55;8.15;;;3.45;;
31126;SDS011;17775;57.948;12.514;2023-03-01T06:43:22;9.60;;;4.00;;
31126;SDS011;17775;57.948;12.514;2023-03-01T06:45:49;7.97;;;3.88;;
31126;SDS011;17775;57.948;12.514;2023-03-01T06:48:16;8.80;;;3.70;;
31126;SDS011;17775;57.948;12.514;2023-03-01T06:50:43;7.53;;;2.47;;
31126;SDS011;17775;57.948;12.514;2023-03-01T06:53:10;4.25;;;2.58;;
31126;SDS011;17775;57.948;12.514;2023-03-01T06:55:36;6.57;;;2.20;;
31126;SDS011;17775;57.948;12.514;2023-03-01T06:58:03;5.78;;;1.60;;
31126;SDS011;17775;57.948;12.514;2023-03-01T07:00:29;5.13;;;1.70;;
31126;SDS011;17775;57.948;12.514;2023-03-01T07:02:58;3.92;;;1.80;;
31126;SDS011;17775;57.948;12.514;2023-03-01T07:05:24;6.07;;;2.30;;
31126;SDS011;17775;57.948;12.514;2023-03-01T07:07:51;5.70;;;2.22;;
31126;SDS011;17775;57.948;12.514;2023-03-01T07:10:19;5.05;;;1.63;;
31126;SDS011;17775;57.948;12.514;2023-03-01T07:12:45;4.10;;;1.92;;
31126;SDS011;17775;57.948;12.514;2023-03-01T07:15:12;5.53;;;1.95;;
31126;SDS011;17775;57.948;12.514;2023-03-01T07:17:41;5.03;;;2.50;;
31126;SDS011;17775;57.948;12.514;2023-03-01T07:20:07;5.07;;;2.45;;
31126;SDS011;17775;57.948;12.514;2023-03-01T07:22:39;4.65;;;2.33;;
31126;SDS011;17775;57.948;12.514;2023-03-01T07:25:05;6.82;;;2.63;;
31126;SDS011;17775;57.948;12.514;2023-03-01T07:27:32;6.68;;;2.72;;
31126;SDS011;17775;57.948;12.514;2023-03-01T07:29:58;4.60;;;2.35;;
31126;SDS011;17775;57.948;12.514;2023-03-01T07:32:25;4.90;;;2.90;;
31126;SDS011;17775;57.948;12.514;2023-03-01T07:34:51;4.20;;;2.30;;
31126;SDS011;17775;57.948;12.514;2023-03-01T07:37:18;5.15;;;2.35;;
31126;SDS011;17775;57.948;12.514;2023-03-01T07:39:47;4.82;;;2.22;;
31126;SDS011;17775;57.948;12.514;2023-03-01T07:42:13;6.07;;;2.78;;
31126;SDS011;17775;57.948;12.514;2023-03-01T07:44:40;6.15;;;2.80;;
31126;SDS011;17775;57.948;12.514;2023-03-01T07:47:06;4.28;;;2.40;;
31126;SDS011;17775;57.948;12.514;2023-03-01T07:49:32;5.47;;;2.90;;
31126;SDS011;17775;57.948;12.514;2023-03-01T07:51:59;5.40;;;2.53;;
31126;SDS011;17775;57.948;12.514;2023-03-01T07:54:26;3.75;;;1.98;;
31126;SDS011;17775;57.948;12.514;2023-03-01T07:56:52;4.05;;;1.48;;
31126;SDS011;17775;57.948;12.514;2023-03-01T07:59:22;6.27;;;2.10;;
31126;SDS011;17775;57.948;12.514;2023-03-01T08:01:55;4.78;;;2.10;;
31126;SDS011;17775;57.948;12.514;2023-03-01T08:04:22;3.13;;;1.88;;
31126;SDS011;17775;57.948;12.514;2023-03-01T08:06:49;3.90;;;1.83;;
31126;SDS011;17775;57.948;12.514;2023-03-01T08:09:15;6.38;;;1.70;;
31126;SDS011;17775;57.948;12.514;2023-03-01T08:11:42;2.95;;;1.38;;
31126;SDS011;17775;57.948;12.514;2023-03-01T08:14:08;3.45;;;1.50;;
31126;SDS011;17775;57.948;12.514;2023-03-01T08:16:36;2.63;;;1.33;;
31126;SDS011;17775;57.948;12.514;2023-03-01T08:19:10;2.28;;;1.20;;
31126;SDS011;17775;57.948;12.514;2023-03-01T08:21:37;2.92;;;1.30;;
31126;SDS011;17775;57.948;12.514;2023-03-01T08:24:04;2.30;;;1.17;;
31126;SDS011;17775;57.948;12.514;2023-03-01T08:26:33;2.75;;;1.30;;
31126;SDS011;17775;57.948;12.514;2023-03-01T08:29:00;2.83;;;1.10;;
31126;SDS011;17775;57.948;12.514;2023-03-01T08:31:28;2.60;;;1.13;;
31126;SDS011;17775;57.948;12.514;2023-03-01T08:33:56;1.95;;;1.10;;
31126;SDS011;17775;57.948;12.514;2023-03-01T08:36:26;4.25;;;1.58;;
31126;SDS011;17775;57.948;12.514;2023-03-01T08:38:54;4.57;;;1.73;;
31126;SDS011;17775;57.948;12.514;2023-03-01T08:41:21;3.45;;;1.40;;
31126;SDS011;17775;57.948;12.514;2023-03-01T08:43:47;2.03;;;0.98;;
31126;SDS011;17775;57.948;12.514;2023-03-01T08:46:14;2.08;;;1.20;;
31126;SDS011;17775;57.948;12.514;2023-03-01T08:48:41;1.65;;;0.95;;
31126;SDS011;17775;57.948;12.514;2023-03-01T08:53:38;1.73;;;0.90;;
31126;SDS011;17775;57.948;12.514;2023-03-01T08:56:05;1.38;;;0.80;;
31126;SDS011;17775;57.948;12.514;2023-03-01T08:58:32;1.73;;;0.93;;
31126;SDS011;17775;57.948;12.514;2023-03-01T09:00:58;2.35;;;1.00;;
31126;SDS011;17775;57.948;12.514;2023-03-01T09:03:25;1.02;;;0.75;;
31126;SDS011;17775;57.948;12.514;2023-03-01T09:05:52;2.35;;;1.08;;
31126;SDS011;17775;57.948;12.514;2023-03-01T09:08:18;2.15;;;1.00;;
31126;SDS011;17775;57.948;12.514;2023-03-01T09:10:45;1.95;;;0.95;;
31126;SDS011;17775;57.948;12.514;2023-03-01T09:13:12;2.03;;;0.90;;
31126;SDS011;17775;57.948;12.514;2023-03-01T09:15:41;1.63;;;0.70;;
31126;SDS011;17775;57.948;12.514;2023-03-01T09:18:08;1.73;;;0.80;;
31126;SDS011;17775;57.948;12.514;2023-03-01T09:20:34;2.13;;;1.30;;
31126;SDS011;17775;57.948;12.514;2023-03-01T09:23:00;1.70;;;0.75;;
31126;SDS011;17775;57.948;12.514;2023-03-01T09:25:27;2.90;;;0.90;;
31126;SDS011;17775;57.948;12.514;2023-03-01T09:27:54;2.00;;;0.88;;
31126;SDS011;17775;57.948;12.514;2023-03-01T09:30:21;3.50;;;1.00;;
31126;SDS011;17775;57.948;12.514;2023-03-01T09:32:47;1.60;;;0.73;;
31126;SDS011;17775;57.948;12.514;2023-03-01T09:35:16;3.30;;;0.95;;
31126;SDS011;17775;57.948;12.514;2023-03-01T09:37:43;1.63;;;0.80;;
31126;SDS011;17775;57.948;12.514;2023-03-01T09:40:18;2.75;;;1.10;;
31126;SDS011;17775;57.948;12.514;2023-03-01T09:42:46;1.83;;;0.90;;
31126;SDS011;17775;57.948;12.514;2023-03-01T09:47:58;2.50;;;0.65;;
31126;SDS011;17775;57.948;12.514;2023-03-01T09:50:26;2.08;;;1.55;;
31126;SDS011;17775;57.948;12.514;2023-03-01T10:00:52;1.80;;;0.70;;
31126;SDS011;17775;57.948;12.514;2023-03-01T10:03:26;2.78;;;0.70;;
31126;SDS011;17775;57.948;12.514;2023-03-01T10:08:43;1.38;;;0.60;;
31126;SDS011;17775;57.948;12.514;2023-03-01T10:11:22;1.38;;;0.80;;
31126;SDS011;17775;57.948;12.514;2023-03-01T10:19:04;2.72;;;0.70;;
31126;SDS011;17775;57.948;12.514;2023-03-01T10:21:31;1.25;;;0.60;;
31126;SDS011;17775;57.948;12.514;2023-03-01T10:24:11;0.95;;;0.50;;
31126;SDS011;17775;57.948;12.514;2023-03-01T10:26:40;0.88;;;0.65;;
31126;SDS011;17775;57.948;12.514;2023-03-01T10:34:47;2.25;;;0.50;;
31126;SDS011;17775;57.948;12.514;2023-03-01T10:37:07;1.27;;;0.80;;
31126;SDS011;17775;57.948;12.514;2023-03-01T10:39:35;0.77;;;0.47;;
31126;SDS011;17775;57.948;12.514;2023-03-01T10:42:05;1.33;;;0.52;;
31126;SDS011;17775;57.948;12.514;2023-03-01T10:44:36;0.63;;;0.50;;
31126;SDS011;17775;57.948;12.514;2023-03-01T10:47:04;5.43;;;0.55;;
31126;SDS011;17775;57.948;12.514;2023-03-01T10:49:30;1.60;;;0.60;;
31126;SDS011;17775;57.948;12.514;2023-03-01T10:51:57;2.22;;;0.68;;
31126;SDS011;17775;57.948;12.514;2023-03-01T10:54:37;1.88;;;0.50;;
31126;SDS011;17775;57.948;12.514;2023-03-01T10:57:04;2.38;;;0.60;;
31126;SDS011;17775;57.948;12.514;2023-03-01T10:59:34;2.03;;;0.70;;
31126;SDS011;17775;57.948;12.514;2023-03-01T11:02:13;1.25;;;0.70;;
31126;SDS011;17775;57.948;12.514;2023-03-01T11:05:00;1.30;;;0.60;;
31126;SDS011;17775;57.948;12.514;2023-03-01T11:07:27;3.47;;;0.90;;
31126;SDS011;17775;57.948;12.514;2023-03-01T11:09:54;0.90;;;0.60;;
31126;SDS011;17775;57.948;12.514;2023-03-01T11:12:21;2.28;;;0.75;;
31126;SDS011;17775;57.948;12.514;2023-03-01T11:14:51;1.45;;;0.60;;
31126;SDS011;17775;57.948;12.514;2023-03-01T11:17:21;1.70;;;0.50;;
31126;SDS011;17775;57.948;12.514;2023-03-01T11:23:18;1.02;;;0.85;;
31126;SDS011;17775;57.948;12.514;2023-03-01T11:25:57;1.05;;;0.80;;
31126;SDS011;17775;57.948;12.514;2023-03-01T11:28:24;7.10;;;1.65;;
31126;SDS011;17775;57.948;12.514;2023-03-01T11:30:55;5.63;;;1.20;;
31126;SDS011;17775;57.948;12.514;2023-03-01T11:36:26;3.70;;;0.80;;
31126;SDS011;17775;57.948;12.514;2023-03-01T11:38:55;1.25;;;0.80;;
31126;SDS011;17775;57.948;12.514;2023-03-01T11:41:23;1.15;;;0.50;;
31126;SDS011;17775;57.948;12.514;2023-03-01T11:43:58;0.73;;;0.60;;
31126;SDS011;17775;57.948;12.514;2023-03-01T12:02:16;1.33;;;0.60;;
31126;SDS011;17775;57.948;12.514;2023-03-01T12:07:59;1.08;;;0.45;;
31126;SDS011;17775;57.948;12.514;2023-03-01T12:30:59;3.15;;;0.50;;
31126;SDS011;17775;57.948;12.514;2023-03-01T12:38:57;9.55;;;1.73;;
31126;SDS011;17775;57.948;12.514;2023-03-01T12:41:35;0.60;;;0.47;;
31126;SDS011;17775;57.948;12.514;2023-03-01T12:44:12;1.08;;;0.68;;
31126;SDS011;17775;57.948;12.514;2023-03-01T12:49:26;0.40;;;0.40;;
31126;SDS011;17775;57.948;12.514;2023-03-01T12:54:48;0.52;;;0.50;;
31126;SDS011;17775;57.948;12.514;2023-03-01T12:57:17;1.05;;;0.70;;
31126;SDS011;17775;57.948;12.514;2023-03-01T13:07:55;1.38;;;1.20;;
31126;SDS011;17775;57.948;12.514;2023-03-01T13:13:28;7.97;;;1.55;;
31126;SDS011;17775;57.948;12.514;2023-03-01T13:15:54;0.68;;;0.57;;
31126;SDS011;17775;57.948;12.514;2023-03-01T13:20:52;0.93;;;0.50;;
31126;SDS011;17775;57.948;12.514;2023-03-01T13:26:19;0.60;;;0.52;;
31126;SDS011;17775;57.948;12.514;2023-03-01T13:28:39;1.05;;;0.68;;
31126;SDS011;17775;57.948;12.514;2023-03-01T13:31:55;1.02;;;0.60;;
31126;SDS011;17775;57.948;12.514;2023-03-01T13:33:59;0.60;;;0.60;;
31126;SDS011;17775;57.948;12.514;2023-03-01T13:38:57;0.70;;;0.60;;
31126;SDS011;17775;57.948;12.514;2023-03-01T13:44:24;1.55;;;0.50;;
31126;SDS011;17775;57.948;12.514;2023-03-01T13:47:08;1.58;;;0.55;;
31126;SDS011;17775;57.948;12.514;2023-03-01T13:49:47;1.35;;;0.40;;
31126;SDS011;17775;57.948;12.514;2023-03-01T13:52:22;0.63;;;0.30;;
31126;SDS011;17775;57.948;12.514;2023-03-01T13:54:52;8.10;;;0.90;;
31126;SDS011;17775;57.948;12.514;2023-03-01T13:57:20;1.63;;;0.40;;
31126;SDS011;17775;57.948;12.514;2023-03-01T13:59:47;0.60;;;0.50;;
31126;SDS011;17775;57.948;12.514;2023-03-01T14:02:14;0.50;;;0.50;;
31126;SDS011;17775;57.948;12.514;2023-03-01T14:04:41;1.55;;;0.30;;
31126;SDS011;17775;57.948;12.514;2023-03-01T14:09:40;0.38;;;0.35;;
31126;SDS011;17775;57.948;12.514;2023-03-01T14:12:20;0.40;;;0.40;;
31126;SDS011;17775;57.948;12.514;2023-03-01T14:14:57;0.45;;;0.40;;
31126;SDS011;17775;57.948;12.514;2023-03-01T14:19:56;0.30;;;0.30;;
31126;SDS011;17775;57.948;12.514;2023-03-01T14:27:18;1.67;;;0.30;;
31126;SDS011;17775;57.948;12.514;2023-03-01T14:29:53;0.45;;;0.30;;
31126;SDS011;17775;57.948;12.514;2023-03-01T14:32:21;0.93;;;0.40;;
31126;SDS011;17775;57.948;12.514;2023-03-01T14:34:49;0.40;;;0.40;;
31126;SDS011;17775;57.948;12.514;2023-03-01T14:39:45;0.85;;;0.30;;
31126;SDS011;17775;57.948;12.514;2023-03-01T14:42:12;0.50;;;0.50;;
31126;SDS011;17775;57.948;12.514;2023-03-01T14:44:45;0.73;;;0.40;;
31126;SDS011;17775;57.948;12.514;2023-03-01T14:47:13;2.30;;;0.88;;
31126;SDS011;17775;57.948;12.514;2023-03-01T14:49:40;2.15;;;0.40;;
31126;SDS011;17775;57.948;12.514;2023-03-01T14:52:16;0.60;;;0.50;;
31126;SDS011;17775;57.948;12.514;2023-03-01T14:55:02;4.53;;;0.60;;
31126;SDS011;17775;57.948;12.514;2023-03-01T14:57:30;2.67;;;0.60;;
31126;SDS011;17775;57.948;12.514;2023-03-01T15:00:00;8.43;;;0.88;;
31126;SDS011;17775;57.948;12.514;2023-03-01T15:02:30;1.98;;;0.43;;
31126;SDS011;17775;57.948;12.514;2023-03-01T15:04:58;1.50;;;0.30;;
31126;SDS011;17775;57.948;12.514;2023-03-01T15:07:34;0.30;;;0.30;;
31126;SDS011;17775;57.948;12.514;2023-03-01T15:10:02;2.42;;;0.43;;
31126;SDS011;17775;57.948;12.514;2023-03-01T15:12:36;1.33;;;0.50;;
31126;SDS011;17775;57.948;12.514;2023-03-01T15:15:20;2.00;;;0.30;;
31126;SDS011;17775;57.948;12.514;2023-03-01T15:17:53;0.30;;;0.20;;
31126;SDS011;17775;57.948;12.514;2023-03-01T15:20:24;2.80;;;0.35;;
31126;SDS011;17775;57.948;12.514;2023-03-01T15:22:52;2.10;;;0.52;;
31126;SDS011;17775;57.948;12.514;2023-03-01T15:25:19;7.05;;;0.85;;
31126;SDS011;17775;57.948;12.514;2023-03-01T15:27:47;1.05;;;0.40;;
31126;SDS011;17775;57.948;12.514;2023-03-01T15:30:18;0.20;;;0.20;;
31126;SDS011;17775;57.948;12.514;2023-03-01T15:32:46;3.33;;;0.63;;
31126;SDS011;17775;57.948;12.514;2023-03-01T15:37:58;2.15;;;0.30;;
31126;SDS011;17775;57.948;12.514;2023-03-01T15:40:27;0.63;;;0.30;;
31126;SDS011;17775;57.948;12.514;2023-03-01T15:43:04;11.32;;;0.93;;
31126;SDS011;17775;57.948;12.514;2023-03-01T15:45:33;11.80;;;1.10;;
31126;SDS011;17775;57.948;12.514;2023-03-01T15:48:05;2.05;;;0.30;;
31126;SDS011;17775;57.948;12.514;2023-03-01T15:50:40;0.50;;;0.30;;
31126;SDS011;17775;57.948;12.514;2023-03-01T15:53:09;2.60;;;0.40;;
31126;SDS011;17775;57.948;12.514;2023-03-01T15:55:37;5.25;;;0.43;;
31126;SDS011;17775;57.948;12.514;2023-03-01T15:58:05;7.93;;;0.68;;
31126;SDS011;17775;57.948;12.514;2023-03-01T16:00:32;1.92;;;0.35;;
31126;SDS011;17775;57.948;12.514;2023-03-01T16:02:59;1.05;;;0.32;;
31126;SDS011;17775;57.948;12.514;2023-03-01T16:05:29;8.85;;;0.75;;
31126;SDS011;17775;57.948;12.514;2023-03-01T16:08:00;6.13;;;1.40;;
31126;SDS011;17775;57.948;12.514;2023-03-01T16:10:27;2.30;;;0.40;;
31126;SDS011;17775;57.948;12.514;2023-03-01T16:12:54;2.78;;;0.68;;
31126;SDS011;17775;57.948;12.514;2023-03-01T16:17:47;6.00;;;0.57;;
31126;SDS011;17775;57.948;12.514;2023-03-01T16:20:14;2.80;;;0.50;;
31126;SDS011;17775;57.948;12.514;2023-03-01T16:22:53;3.63;;;0.40;;
31126;SDS011;17775;57.948;12.514;2023-03-01T16:25:20;1.35;;;0.20;;
31126;SDS011;17775;57.948;12.514;2023-03-01T16:27:48;0.60;;;0.35;;
31126;SDS011;17775;57.948;12.514;2023-03-01T16:30:15;0.98;;;0.40;;
31126;SDS011;17775;57.948;12.514;2023-03-01T16:32:43;1.40;;;0.68;;
31126;SDS011;17775;57.948;12.514;2023-03-01T16:35:10;1.73;;;0.30;;
31126;SDS011;17775;57.948;12.514;2023-03-01T16:37:37;0.22;;;0.20;;
31126;SDS011;17775;57.948;12.514;2023-03-01T16:40:04;1.92;;;0.35;;
31126;SDS011;17775;57.948;12.514;2023-03-01T16:42:34;0.52;;;0.30;;
31126;SDS011;17775;57.948;12.514;2023-03-01T16:45:01;16.23;;;1.48;;
31126;SDS011;17775;57.948;12.514;2023-03-01T16:49:58;2.80;;;0.50;;
31126;SDS011;17775;57.948;12.514;2023-03-01T16:52:25;1.45;;;0.40;;
31126;SDS011;17775;57.948;12.514;2023-03-01T16:54:51;1.55;;;0.43;;
31126;SDS011;17775;57.948;12.514;2023-03-01T16:57:18;4.82;;;0.50;;
31126;SDS011;17775;57.948;12.514;2023-03-01T16:59:52;3.70;;;0.75;;
31126;SDS011;17775;57.948;12.514;2023-03-01T17:02:22;1.30;;;0.30;;